Time;durP1;ratioP1;P1;durP2;ratioP2;P2;SDS_P1;SDS_P2;PMS_P1;PMS_P2;Temp;Humidity;BMP_temperature;BMP_pressure;BME280_temperature;BME280_humidity;BME280_pressure;Samples;Min_cycle;Max_cycle;Signal;HPM_P1;HPM_P2
2024/02/27 00:02:13;;;;;;;20.03;13.97;;;;;;;6.09;100.00;100420.94;6039563;23;20212;-71
2024/02/27 00:04:41;;;;;;;20.13;12.47;;;;;;;6.02;100.00;100431.06;6074659;23;20597;-71
2024/02/27 00:07:07;;;;;;;20.40;13.53;;;;;;;5.93;100.00;100430.22;6074945;23;20169;-71
2024/02/27 00:09:33;;;;;;;23.70;13.17;;;;;;;5.86;100.00;100440.38;6075519;23;20172;-71
2024/02/27 00:12:00;;;;;;;21.33;12.87;;;;;;;5.79;100.00;100429.47;6075042;23;20191;-71
2024/02/27 00:14:26;;;;;;;25.87;14.60;;;;;;;5.71;100.00;100427.59;6075303;23;20285;-71
2024/02/27 00:16:54;;;;;;;24.97;14.40;;;;;;;5.65;100.00;100424.28;6076049;23;20492;-71
2024/02/27 00:19:20;;;;;;;21.93;14.23;;;;;;;5.58;100.00;100421.31;6075619;23;20170;-71
2024/02/27 00:21:46;;;;;;;23.80;14.20;;;;;;;5.53;100.00;100423.25;6075337;23;20195;-71
2024/02/27 00:24:13;;;;;;;23.60;13.60;;;;;;;5.46;100.00;100434.16;6075250;23;20500;-71
2024/02/27 00:26:39;;;;;;;23.17;13.53;;;;;;;5.40;100.00;100440.56;6075217;23;20171;-71
2024/02/27 00:29:06;;;;;;;19.90;12.93;;;;;;;5.35;100.00;100438.06;6075066;23;20178;-71
2024/02/27 00:31:32;;;;;;;22.63;13.77;;;;;;;5.31;100.00;100437.09;6074969;23;20516;-71
2024/02/27 00:34:00;;;;;;;22.10;14.07;;;;;;;5.26;100.00;100436.41;6075209;23;20202;-71
2024/02/27 00:36:26;;;;;;;21.77;14.00;;;;;;;5.23;100.00;100440.38;6074663;23;20636;-72
2024/02/27 00:38:52;;;;;;;25.37;14.57;;;;;;;5.19;100.00;100442.03;6075809;23;20174;-72
2024/02/27 00:41:19;;;;;;;24.17;14.37;;;;;;;5.17;100.00;100436.31;6075251;23;20234;-72
2024/02/27 00:43:45;;;;;;;24.00;15.27;;;;;;;5.15;100.00;100441.09;6075832;23;20512;-72
2024/02/27 00:46:12;;;;;;;26.27;14.77;;;;;;;5.15;100.00;100435.84;6075347;23;20170;-72
2024/02/27 00:48:39;;;;;;;25.67;14.53;;;;;;;5.16;100.00;100434.00;6075340;23;20179;-71
2024/02/27 00:51:06;;;;;;;23.33;15.50;;;;;;;5.13;100.00;100435.34;6073571;23;20174;-71
2024/02/27 00:53:33;;;;;;;23.33;14.90;;;;;;;5.15;100.00;100427.22;6075349;23;20740;-71
2024/02/27 00:56:00;;;;;;;27.73;16.33;;;;;;;5.16;100.00;100426.94;6066083;23;20183;-71
2024/02/27 00:58:27;;;;;;;26.50;17.03;;;;;;;5.17;100.00;100433.72;6075385;23;20206;-71
2024/02/27 01:00:53;;;;;;;24.57;16.30;;;;;;;5.19;100.00;100434.19;6075350;23;20162;-71
2024/02/27 01:03:20;;;;;;;26.20;17.03;;;;;;;5.19;100.00;100442.03;6072718;23;20191;-71
2024/02/27 01:05:46;;;;;;;25.97;16.17;;;;;;;5.21;100.00;100447.78;6073839;23;20170;-71
2024/02/27 01:08:14;;;;;;;26.87;15.37;;;;;;;5.22;100.00;100456.38;6073384;23;20548;-71
2024/02/27 01:10:40;;;;;;;28.17;16.80;;;;;;;5.21;100.00;100458.25;6072767;23;20463;-72
2024/02/27 01:13:06;;;;;;;25.30;16.20;;;;;;;5.21;100.00;100465.31;6071557;23;20195;-71
2024/02/27 01:15:33;;;;;;;27.23;16.20;;;;;;;5.21;100.00;100468.72;6072444;23;20174;-71
2024/02/27 01:17:59;;;;;;;30.60;17.20;;;;;;;5.21;100.00;100467.94;6072675;23;20201;-71
2024/02/27 01:20:25;;;;;;;30.30;16.20;;;;;;;5.20;100.00;100469.78;6073243;23;20199;-71
2024/02/27 01:22:52;;;;;;;28.03;16.70;;;;;;;5.18;100.00;100476.38;6073705;23;20198;-71
2024/02/27 01:25:20;;;;;;;25.27;16.30;;;;;;;5.15;100.00;100493.44;6038124;23;20178;-71
2024/02/27 01:27:46;;;;;;;25.63;15.70;;;;;;;5.13;100.00;100490.31;6073432;23;20504;-71
2024/02/27 01:30:12;;;;;;;23.63;14.60;;;;;;;5.09;100.00;100484.13;6072800;23;20171;-71
2024/02/27 01:32:40;;;;;;;23.77;15.00;;;;;;;5.05;100.00;100488.41;6073938;23;20206;-71
2024/02/27 01:35:10;;;;;;;23.50;14.83;;;;;;;5.02;100.00;100491.59;6073629;23;20183;-71
2024/02/27 01:37:37;;;;;;;25.67;14.77;;;;;;;5.00;100.00;100498.97;6074389;23;20163;-71
2024/02/27 01:40:04;;;;;;;23.90;15.43;;;;;;;4.98;100.00;100502.94;6074245;23;20558;-71
2024/02/27 01:42:32;;;;;;;25.63;15.10;;;;;;;4.97;100.00;100515.22;6074336;23;20215;-71
2024/02/27 01:44:58;;;;;;;24.27;14.93;;;;;;;4.97;100.00;100511.84;6073458;23;20543;-71
2024/02/27 01:47:25;;;;;;;23.53;15.77;;;;;;;4.97;100.00;100520.47;6073871;23;20245;-71
2024/02/27 01:49:52;;;;;;;31.73;15.77;;;;;;;4.98;100.00;100523.84;6073489;23;20162;-71
2024/02/27 01:52:20;;;;;;;23.87;15.73;;;;;;;4.98;100.00;100529.84;6072960;23;20658;-72
2024/02/27 01:54:50;;;;;;;29.60;15.37;;;;;;;5.00;100.00;100519.88;6073274;23;20191;-72
2024/02/27 01:57:18;;;;;;;25.33;16.47;;;;;;;5.01;100.00;100521.44;6073522;23;20536;-72
2024/02/27 01:59:47;;;;;;;26.10;15.77;;;;;;;5.03;100.00;100523.78;6073197;23;20245;-72
2024/02/27 02:02:15;;;;;;;26.10;15.80;;;;;;;5.04;100.00;100533.16;6072521;23;20265;-72
2024/02/27 02:04:41;;;;;;;27.00;15.63;;;;;;;5.05;100.00;100526.88;6072448;23;20214;-71
2024/02/27 02:07:07;;;;;;;22.83;15.03;;;;;;;5.05;100.00;100532.88;6072614;23;20171;-71
2024/02/27 02:09:34;;;;;;;25.73;15.10;;;;;;;5.04;100.00;100533.16;6073324;23;20509;-72
2024/02/27 02:12:01;;;;;;;23.70;14.40;;;;;;;5.05;100.00;100537.31;6073257;23;20525;-72
2024/02/27 02:14:28;;;;;;;25.37;14.87;;;;;;;5.04;100.00;100530.53;6072993;23;20194;-72
2024/02/27 02:16:56;;;;;;;23.10;14.50;;;;;;;5.03;100.00;100529.00;6073554;23;20195;-72
2024/02/27 02:19:22;;;;;;;21.53;13.60;;;;;;;5.01;100.00;100537.13;6072782;23;20570;-72
2024/02/27 02:21:50;;;;;;;24.00;14.77;;;;;;;5.00;100.00;100537.41;6072944;23;20659;-72
2024/02/27 02:24:18;;;;;;;21.90;14.13;;;;;;;4.98;100.00;100535.09;6073234;23;20167;-72
2024/02/27 02:26:45;;;;;;;27.50;14.43;;;;;;;4.97;100.00;100543.25;6073883;23;20194;-72
2024/02/27 02:29:11;;;;;;;22.77;14.03;;;;;;;4.94;100.00;100547.22;6072942;23;20171;-71
2024/02/27 02:31:38;;;;;;;21.30;13.43;;;;;;;4.92;100.00;100544.09;6073494;23;20768;-71
2024/02/27 02:34:04;;;;;;;23.87;14.73;;;;;;;4.91;100.00;100542.53;6073225;23;20525;-71
2024/02/27 02:36:30;;;;;;;24.17;13.70;;;;;;;4.89;100.00;100546.50;6037290;23;20185;-72
2024/02/27 02:38:58;;;;;;;21.70;13.80;;;;;;;4.87;100.00;100546.78;6072973;23;20723;-71
2024/02/27 02:41:24;;;;;;;23.17;13.73;;;;;;;4.86;100.00;100544.47;6072446;23;20171;-71
2024/02/27 02:43:51;;;;;;;22.63;13.20;;;;;;;4.82;100.00;100546.88;6072854;23;20183;-71
2024/02/27 02:46:17;;;;;;;22.40;12.83;;;;;;;4.80;100.00;100554.25;6073038;23;20177;-71
2024/02/27 02:48:43;;;;;;;23.83;13.17;;;;;;;4.78;100.00;100558.22;6072847;23;20177;-71
2024/02/27 02:51:12;;;;;;;20.73;13.63;;;;;;;4.75;100.00;100566.63;6073241;23;20201;-71
2024/02/27 02:53:39;;;;;;;20.33;12.60;;;;;;;4.72;100.00;100561.97;6073137;23;20204;-71
2024/02/27 02:56:07;;;;;;;19.90;13.10;;;;;;;4.68;100.00;100563.63;6073995;23;20635;-71
2024/02/27 02:58:33;;;;;;;21.63;12.80;;;;;;;4.66;100.00;100560.53;6073575;23;20171;-71
2024/02/27 03:01:00;;;;;;;20.20;13.07;;;;;;;4.63;100.00;100572.31;6072795;23;20205;-71
2024/02/27 03:03:26;;;;;;;20.60;12.87;;;;;;;4.62;100.00;100577.84;6072333;23;20190;-71
2024/02/27 03:05:52;;;;;;;20.20;13.03;;;;;;;4.62;100.00;100570.00;6073247;23;20242;-71
2024/02/27 03:08:19;;;;;;;20.10;13.07;;;;;;;4.62;100.00;100570.75;6072339;23;20241;-71
2024/02/27 03:10:45;;;;;;;25.00;14.83;;;;;;;4.62;100.00;100568.13;6072545;23;20241;-71
2024/02/27 03:13:13;;;;;;;24.07;13.87;;;;;;;4.63;100.00;100576.78;6072380;23;20191;-71
2024/02/27 03:15:39;;;;;;;22.27;13.97;;;;;;;4.63;100.00;100564.47;6073000;23;20186;-72
2024/02/27 03:18:05;;;;;;;24.13;15.43;;;;;;;4.65;100.00;100566.78;6072531;23;20174;-72
2024/02/27 03:20:32;;;;;;;21.40;13.53;;;;;;;4.63;100.00;100559.25;6072544;23;20176;-72
2024/02/27 03:22:58;;;;;;;23.80;14.57;;;;;;;4.63;100.00;100569.72;6072621;23;20197;-72
2024/02/27 03:25:24;;;;;;;24.23;14.17;;;;;;;4.63;100.00;100577.56;6037453;23;20248;-72
2024/02/27 03:27:51;;;;;;;22.30;13.50;;;;;;;4.63;100.00;100571.53;6072899;23;20208;-71
2024/02/27 03:30:19;;;;;;;22.07;13.17;;;;;;;4.61;100.00;100573.69;6072630;23;20193;-71
2024/02/27 03:32:45;;;;;;;25.17;13.97;;;;;;;4.58;100.00;100569.78;6072105;23;20703;-72
2024/02/27 03:35:11;;;;;;;21.47;13.83;;;;;;;4.56;100.00;100581.59;6071286;23;20800;-72
2024/02/27 03:37:38;;;;;;;24.43;13.93;;;;;;;4.54;100.00;100586.31;6072746;23;20173;-72
2024/02/27 03:40:05;;;;;;;19.63;12.73;;;;;;;4.52;100.00;100580.59;6072299;23;20171;-71
2024/02/27 03:42:32;;;;;;;20.67;13.50;;;;;;;4.49;100.00;100587.19;6072870;23;20201;-71
2024/02/27 03:44:58;;;;;;;21.47;13.67;;;;;;;4.46;100.00;100589.59;6072924;23;20169;-71
2024/02/27 03:47:26;;;;;;;21.87;14.30;;;;;;;4.43;100.00;100584.91;6072445;23;20199;-71
2024/02/27 03:49:52;;;;;;;20.87;13.20;;;;;;;4.38;100.00;100582.38;6072513;23;20181;-71
2024/02/27 03:52:18;;;;;;;22.17;13.40;;;;;;;4.35;100.00;100575.88;6072485;23;20186;-71
2024/02/27 03:54:45;;;;;;;24.47;12.97;;;;;;;4.33;100.00;100582.47;6072709;23;20187;-71
2024/02/27 03:57:11;;;;;;;20.03;12.83;;;;;;;4.30;100.00;100585.66;6073397;23;20182;-71
2024/02/27 03:59:38;;;;;;;24.10;14.07;;;;;;;4.27;100.00;100583.59;6072880;23;20232;-71
2024/02/27 04:02:06;;;;;;;19.83;12.53;;;;;;;4.23;100.00;100583.38;6073155;23;20641;-71
2024/02/27 04:04:34;;;;;;;21.10;12.13;;;;;;;4.20;100.00;100583.19;6072790;23;20168;-71
2024/02/27 04:07:00;;;;;;;19.63;12.23;;;;;;;4.16;100.00;100582.97;6073276;23;20251;-71
2024/02/27 04:09:27;;;;;;;19.00;12.60;;;;;;;4.12;100.00;100592.44;6036828;23;20185;-71
2024/02/27 04:11:53;;;;;;;20.27;12.90;;;;;;;4.09;100.00;100584.38;6072789;23;20604;-72
2024/02/27 04:14:19;;;;;;;21.27;12.47;;;;;;;4.06;100.00;100595.38;6072501;23;20186;-71
2024/02/27 04:16:46;;;;;;;19.57;12.77;;;;;;;4.02;100.00;100595.19;6072384;23;20176;-71
2024/02/27 04:19:15;;;;;;;18.27;12.17;;;;;;;3.98;100.00;100602.00;6072162;23;20172;-71
2024/02/27 04:21:42;;;;;;;20.87;12.57;;;;;;;3.95;100.00;100597.34;6072305;23;20220;-71
2024/02/27 04:24:09;;;;;;;23.70;12.63;;;;;;;3.92;100.00;100592.69;6073131;23;20167;-71
2024/02/27 04:26:35;;;;;;;21.73;12.93;;;;;;;3.89;100.00;100595.09;6073075;23;20171;-71
2024/02/27 04:29:01;;;;;;;21.70;12.73;;;;;;;3.85;100.00;100600.09;6072687;23;20575;-71
2024/02/27 04:31:28;;;;;;;20.50;12.13;;;;;;;3.84;100.00;100598.53;6072110;23;20617;-71
2024/02/27 04:33:54;;;;;;;19.97;12.60;;;;;;;3.82;100.00;100608.50;6072996;23;20549;-71
2024/02/27 04:36:21;;;;;;;20.37;12.73;;;;;;;3.81;100.00;100612.16;6071978;23;20172;-71
2024/02/27 04:38:48;;;;;;;19.27;12.00;;;;;;;3.80;100.00;100602.78;6037166;23;20185;-71
2024/02/27 04:41:15;;;;;;;21.60;13.67;;;;;;;3.82;100.00;100599.88;6072183;23;20172;-71
2024/02/27 04:43:41;;;;;;;20.60;13.07;;;;;;;3.83;100.00;100598.84;6072535;23;20199;-71
2024/02/27 04:46:08;;;;;;;20.87;12.53;;;;;;;3.84;100.00;100601.13;6074205;23;20167;-71
2024/02/27 04:48:35;;;;;;;20.63;13.67;;;;;;;3.87;100.00;100599.81;6073979;23;20170;-71
2024/02/27 04:51:01;;;;;;;20.73;13.10;;;;;;;3.91;100.00;100598.19;6074793;23;20173;-71
2024/02/27 04:53:28;;;;;;;21.50;13.20;;;;;;;3.94;100.00;100595.03;6072526;23;20187;-71
2024/02/27 04:55:55;;;;;;;21.43;13.13;;;;;;;3.97;100.00;100595.25;6074175;23;20214;-71
2024/02/27 04:58:22;;;;;;;19.73;12.77;;;;;;;4.00;100.00;100597.28;6073978;23;20508;-71
2024/02/27 05:00:48;;;;;;;20.40;13.33;;;;;;;4.03;100.00;100598.53;6074256;23;20167;-71
2024/02/27 05:03:14;;;;;;;22.03;14.30;;;;;;;4.07;100.00;100602.94;6073730;23;20197;-71
2024/02/27 05:05:41;;;;;;;21.80;13.47;;;;;;;4.11;100.00;100608.38;6073936;23;20171;-71
2024/02/27 05:08:07;;;;;;;21.47;13.77;;;;;;;4.14;100.00;100613.06;6073681;23;20169;-72
2024/02/27 05:10:33;;;;;;;20.73;13.17;;;;;;;4.16;100.00;100614.34;6073859;23;20173;-71
2024/02/27 05:13:01;;;;;;;22.30;13.13;;;;;;;4.19;100.00;100618.22;6073850;23;20671;-72
2024/02/27 05:15:27;;;;;;;19.40;12.10;;;;;;;4.23;100.00;100619.19;6038994;23;20233;-71
2024/02/27 05:17:54;;;;;;;19.60;13.00;;;;;;;4.26;100.00;100622.00;6074273;23;20172;-71
2024/02/27 05:20:20;;;;;;;22.97;13.20;;;;;;;4.30;100.00;100620.38;6073741;23;20173;-71
2024/02/27 05:22:46;;;;;;;23.67;14.47;;;;;;;4.35;100.00;100616.94;6073275;23;20274;-71
2024/02/27 05:25:13;;;;;;;23.60;14.00;;;;;;;4.37;100.00;100615.59;6073320;23;20173;-71
2024/02/27 05:27:39;;;;;;;24.43;14.27;;;;;;;4.41;100.00;100632.25;6072877;23;20839;-71
2024/02/27 05:30:08;;;;;;;25.83;15.70;;;;;;;4.46;100.00;100639.28;6073267;23;20167;-71
2024/02/27 05:32:34;;;;;;;20.93;13.40;;;;;;;4.48;100.00;100635.31;6072727;23;20190;-72
2024/02/27 05:35:00;;;;;;;24.67;14.37;;;;;;;4.51;100.00;100642.56;6072445;23;20198;-72
2024/02/27 05:37:27;;;;;;;22.60;13.77;;;;;;;4.55;100.00;100653.22;6073053;23;20183;-72
2024/02/27 05:39:53;;;;;;;22.30;14.37;;;;;;;4.58;100.00;100650.06;6073610;23;20177;-72
2024/02/27 05:42:19;;;;;;;25.50;15.57;;;;;;;4.62;100.00;100654.44;6073059;23;20519;-72
2024/02/27 05:44:46;;;;;;;22.87;16.10;;;;;;;4.64;100.00;100657.56;6072889;23;20520;-72
2024/02/27 05:47:14;;;;;;;23.53;15.53;;;;;;;4.67;100.00;100666.69;6072111;23;20670;-72
2024/02/27 05:49:41;;;;;;;22.70;13.60;;;;;;;4.72;100.00;100669.22;6074338;23;20177;-72
2024/02/27 05:52:07;;;;;;;21.43;13.87;;;;;;;4.73;100.00;100671.56;6074213;23;20218;-72
2024/02/27 05:54:33;;;;;;;23.80;13.93;;;;;;;4.76;100.00;100678.06;6073586;23;20171;-72
2024/02/27 05:57:00;;;;;;;19.63;12.50;;;;;;;4.78;100.00;100681.94;6038755;23;20174;-72
2024/02/27 05:59:27;;;;;;;25.07;14.57;;;;;;;4.80;100.00;100679.03;6074066;23;20174;-72
2024/02/27 06:01:53;;;;;;;19.73;13.53;;;;;;;4.84;100.00;100682.63;6075033;23;20191;-72
2024/02/27 06:04:21;;;;;;;20.23;13.50;;;;;;;4.86;100.00;100680.50;6074335;23;20174;-72
2024/02/27 06:06:47;;;;;;;25.67;12.97;;;;;;;4.87;100.00;100680.22;6074520;23;20195;-71
2024/02/27 06:09:13;;;;;;;21.83;14.17;;;;;;;4.89;100.00;100677.31;6073772;23;20177;-72
2024/02/27 06:11:41;;;;;;;23.17;13.77;;;;;;;4.88;100.00;100684.38;6073769;23;20195;-72
2024/02/27 06:14:07;;;;;;;21.03;13.30;;;;;;;4.91;100.00;100694.28;6039151;23;20179;-72
2024/02/27 06:16:34;;;;;;;22.63;13.67;;;;;;;4.92;100.00;100692.47;6038864;23;20197;-72
2024/02/27 06:19:01;;;;;;;20.60;13.47;;;;;;;4.94;100.00;100700.78;6073819;23;20171;-72
2024/02/27 06:24:13;;;;;;;25.23;13.40;;;;;;;4.94;100.00;100696.34;6073838;23;20167;-72
2024/02/27 06:26:42;;;;;;;20.70;13.70;;;;;;;4.98;100.00;100692.09;6071289;23;20166;-72
2024/02/27 06:29:11;;;;;;;24.30;14.03;;;;;;;4.99;100.00;100692.88;6074503;23;20174;-72
2024/02/27 06:31:40;;;;;;;22.13;12.93;;;;;;;5.00;100.00;100694.41;6074022;23;20171;-72
2024/02/27 06:34:06;;;;;;;20.50;13.80;;;;;;;5.01;100.00;100699.38;6039800;23;20171;-72
2024/02/27 06:36:34;;;;;;;20.70;13.00;;;;;;;5.03;100.00;100691.25;6074018;23;20248;-71
2024/02/27 06:39:00;;;;;;;18.33;12.83;;;;;;;5.05;100.00;100696.97;6064872;23;20639;-72
2024/02/27 06:41:27;;;;;;;21.33;13.10;;;;;;;5.07;100.00;100702.69;6074221;23;20234;-72
2024/02/27 06:43:53;;;;;;;21.93;13.40;;;;;;;5.08;100.00;100705.00;6074013;23;20175;-72
2024/02/27 06:46:20;;;;;;;21.07;13.30;;;;;;;5.11;100.00;100711.50;6064611;23;20186;-72
2024/02/27 06:48:46;;;;;;;21.93;13.63;;;;;;;5.14;100.00;100713.56;6073992;23;20167;-72
2024/02/27 06:51:12;;;;;;;18.93;12.73;;;;;;;5.15;100.00;100707.28;6073237;23;20257;-72
2024/02/27 06:53:41;;;;;;;22.50;14.40;;;;;;;5.17;100.00;100711.16;6073019;23;20368;-72
2024/02/27 06:56:07;;;;;;;19.97;13.20;;;;;;;5.19;100.00;100700.41;6073576;23;20187;-72
2024/02/27 06:58:34;;;;;;;23.17;13.80;;;;;;;5.21;100.00;100706.91;6073224;23;20174;-72
2024/02/27 07:01:01;;;;;;;21.33;13.23;;;;;;;5.21;100.00;100717.38;6037854;23;20175;-72
2024/02/27 07:03:27;;;;;;;19.60;12.93;;;;;;;5.24;100.00;100721.25;6033320;23;20289;-72
2024/02/27 07:05:54;;;;;;;19.93;13.80;;;;;;;5.26;100.00;100724.38;6073336;23;20173;-72
2024/02/27 07:08:20;;;;;;;21.07;14.23;;;;;;;5.28;100.00;100714.41;6071953;23;20174;-72
2024/02/27 07:10:48;;;;;;;21.30;12.70;;;;;;;5.29;100.00;100714.09;6037992;23;20177;-72
2024/02/27 07:13:15;;;;;;;19.67;13.13;;;;;;;5.29;100.00;100724.56;6073132;23;20197;-72
2024/02/27 07:15:42;;;;;;;19.57;12.93;;;;;;;5.31;100.00;100726.91;6073399;23;20719;-72
2024/02/27 07:18:08;;;;;;;21.47;14.53;;;;;;;5.33;100.00;100727.41;6074140;23;20170;-72
2024/02/27 07:20:35;;;;;;;24.83;13.83;;;;;;;5.34;100.00;100721.88;6073328;23;20171;-72
2024/02/27 07:23:02;;;;;;;21.10;13.17;;;;;;;5.36;100.00;100734.69;6072918;23;20186;-72
2024/02/27 07:25:28;;;;;;;20.30;13.23;;;;;;;5.37;100.00;100734.41;6072951;23;20249;-72
2024/02/27 07:27:56;;;;;;;19.53;13.37;;;;;;;5.38;100.00;100745.66;6073777;23;20163;-72
2024/02/27 07:30:22;;;;;;;26.00;13.50;;;;;;;5.38;100.00;100750.91;6073534;23;20177;-72
2024/02/27 07:32:49;;;;;;;22.20;14.70;;;;;;;5.39;100.00;100755.81;6073791;23;20274;-72
2024/02/27 07:35:18;;;;;;;21.03;13.50;;;;;;;5.40;100.00;100764.47;6073074;23;20247;-72
2024/02/27 07:37:44;;;;;;;17.30;12.27;;;;;;;5.41;100.00;100772.03;6072924;23;20171;-72
2024/02/27 07:40:12;;;;;;;20.40;12.57;;;;;;;5.43;100.00;100771.72;6044102;23;20171;-72
2024/02/27 07:42:39;;;;;;;20.47;12.63;;;;;;;5.42;100.00;100772.81;6043956;23;20191;-72
2024/02/27 07:45:07;;;;;;;23.90;13.97;;;;;;;5.44;100.00;100773.31;6044135;23;20723;-72
2024/02/27 07:47:34;;;;;;;23.37;14.80;;;;;;;5.46;100.00;100769.34;6044762;23;20537;-72
2024/02/27 07:50:00;;;;;;;23.87;14.27;;;;;;;5.48;100.00;100774.28;6044123;23;20619;-72
2024/02/27 07:52:26;;;;;;;24.33;13.53;;;;;;;5.49;100.00;100773.22;6044508;23;20272;-72
2024/02/27 07:54:53;;;;;;;24.43;14.80;;;;;;;5.51;100.00;100773.72;6044207;23;20171;-72
2024/02/27 07:57:21;;;;;;;21.63;13.70;;;;;;;5.53;100.00;100774.97;6009858;23;20206;-72
2024/02/27 07:59:50;;;;;;;27.00;14.93;;;;;;;5.55;100.00;100778.06;6045296;23;20621;-72
2024/02/27 08:02:17;;;;;;;21.23;13.47;;;;;;;5.55;100.00;100780.69;6044465;23;20191;-72
2024/02/27 08:04:44;;;;;;;26.27;15.30;;;;;;;5.58;100.00;100780.13;6009967;23;20266;-72
2024/02/27 08:07:10;;;;;;;28.57;14.63;;;;;;;5.59;100.00;100786.94;6044954;23;20211;-72
2024/02/27 08:09:37;;;;;;;26.77;15.33;;;;;;;5.64;100.00;100784.22;6044501;23;20171;-72
2024/02/27 08:12:04;;;;;;;24.10;15.13;;;;;;;5.65;100.00;100788.38;6009900;23;20195;-72
2024/02/27 08:14:32;;;;;;;28.73;15.20;;;;;;;5.68;100.00;100794.91;6043560;23;20774;-73
2024/02/27 08:17:01;;;;;;;31.40;16.53;;;;;;;5.69;100.00;100793.84;6044203;23;20195;-72
2024/02/27 08:19:29;;;;;;;33.27;16.00;;;;;;;5.71;100.00;100797.75;6044263;23;20219;-72
2024/02/27 08:22:03;;;;;;;34.93;16.47;;;;;;;5.73;100.00;100808.72;6046657;23;20225;-72
2024/02/27 08:24:30;;;;;;;27.73;16.17;;;;;;;5.76;100.00;100813.34;6045275;23;20490;-72
2024/02/27 08:26:56;;;;;;;33.07;18.70;;;;;;;5.78;100.00;100807.84;6046153;23;20179;-72
2024/02/27 08:29:22;;;;;;;28.17;16.07;;;;;;;5.79;100.00;100809.38;6045763;23;20169;-72
2024/02/27 08:31:49;;;;;;;33.80;17.73;;;;;;;5.82;100.00;100803.59;6046057;23;20191;-72
2024/02/27 08:34:16;;;;;;;30.43;17.50;;;;;;;5.86;100.00;100796.72;6010889;23;20180;-72
2024/02/27 08:36:43;;;;;;;35.07;19.13;;;;;;;5.89;100.00;100804.00;6045199;23;20708;-72
2024/02/27 08:39:11;;;;;;;36.50;19.23;;;;;;;5.91;100.00;100804.50;6045513;23;20171;-72
2024/02/27 08:41:37;;;;;;;36.47;18.97;;;;;;;5.94;100.00;100804.69;6044451;23;20183;-71
2024/02/27 08:44:03;;;;;;;35.37;18.03;;;;;;;5.95;100.00;100808.13;6045508;23;20521;-72
2024/02/27 08:46:31;;;;;;;34.90;18.40;;;;;;;5.99;100.00;100817.72;6046068;23;20164;-72
2024/02/27 08:48:59;;;;;;;40.37;19.70;;;;;;;6.02;100.00;100808.50;6045961;23;20254;-71
2024/02/27 08:51:25;;;;;;;37.67;21.27;;;;;;;6.04;100.00;100806.34;6044919;23;20621;-72
2024/02/27 08:53:53;;;;;;;49.10;21.07;;;;;;;6.06;100.00;100812.09;6045271;23;20694;-72
2024/02/27 08:56:19;;;;;;;43.17;19.70;;;;;;;6.10;100.00;100813.06;6045450;23;20183;-72
2024/02/27 08:58:46;;;;;;;38.83;19.63;;;;;;;6.11;100.00;100810.16;6045108;23;20500;-72
2024/02/27 09:01:13;;;;;;;38.60;19.67;;;;;;;6.15;100.00;100818.22;6045499;23;20693;-72
2024/02/27 09:03:41;;;;;;;36.53;18.10;;;;;;;6.16;100.00;100817.16;6045260;23;20494;-72
2024/02/27 09:06:09;;;;;;;42.13;20.13;;;;;;;6.18;100.00;100809.78;6044382;23;20177;-72
2024/02/27 09:08:36;;;;;;;38.10;19.30;;;;;;;6.21;100.00;100817.84;6043397;23;20172;-72
2024/02/27 09:11:03;;;;;;;38.67;19.57;;;;;;;6.24;100.00;100821.72;6044445;23;20199;-72
2024/02/27 09:13:30;;;;;;;39.83;20.47;;;;;;;6.26;100.00;100824.84;6032794;23;20195;-71
2024/02/27 09:15:56;;;;;;;37.73;19.77;;;;;;;6.28;100.00;100831.38;6044524;23;20233;-72
2024/02/27 09:18:23;;;;;;;41.80;19.93;;;;;;;6.30;100.00;100831.06;6045149;23;20171;-72
2024/02/27 09:20:49;;;;;;;41.03;20.83;;;;;;;6.34;100.00;100838.06;6045220;23;20179;-72
2024/02/27 09:23:15;;;;;;;41.23;20.13;;;;;;;6.36;100.00;100837.75;6010806;23;20283;-72
2024/02/27 09:25:42;;;;;;;42.83;21.87;;;;;;;6.39;100.00;100845.06;6009890;23;20189;-72
2024/02/27 09:28:10;;;;;;;42.23;19.83;;;;;;;6.40;100.00;100839.53;6045067;23;20187;-72
2024/02/27 09:30:37;;;;;;;40.37;19.70;;;;;;;6.43;100.00;100835.53;6045295;23;20176;-72
2024/02/27 09:33:04;;;;;;;43.17;19.83;;;;;;;6.47;100.00;100839.13;6045242;23;20528;-72
2024/02/27 09:35:30;;;;;;;36.33;18.63;;;;;;;6.50;100.00;100843.78;6044318;23;20239;-72
2024/02/27 09:37:59;;;;;;;43.73;22.30;;;;;;;6.50;100.00;100841.94;6045943;23;20179;-72
2024/02/27 09:40:25;;;;;;;57.87;28.60;;;;;;;6.53;100.00;100857.09;6045347;23;20171;-72
2024/02/27 09:42:56;;;;;;;58.10;27.53;;;;;;;6.55;100.00;100856.81;6009800;23;20199;-72
2024/02/27 09:45:26;;;;;;;43.97;22.93;;;;;;;6.57;100.00;100852.81;6009602;23;20236;-72
2024/02/27 09:47:54;;;;;;;42.73;21.77;;;;;;;6.59;100.00;100848.09;6044353;23;20179;-72
2024/02/27 09:50:22;;;;;;;43.17;22.10;;;;;;;6.61;100.00;100855.63;6045013;23;20191;-72
2024/02/27 09:52:50;;;;;;;44.87;20.70;;;;;;;6.64;100.00;100861.06;6043826;23;20239;-72
2024/02/27 09:55:17;;;;;;;39.17;20.77;;;;;;;6.66;100.00;100866.03;6044889;23;20177;-72
2024/02/27 09:57:44;;;;;;;43.80;22.27;;;;;;;6.67;100.00;100862.34;6044252;23;20218;-72
2024/02/27 10:00:12;;;;;;;41.17;19.67;;;;;;;6.70;100.00;100861.75;6044744;23;20164;-72
2024/02/27 10:02:41;;;;;;;62.33;26.43;;;;;;;6.72;100.00;100870.09;6044034;23;20214;-72
2024/02/27 10:05:08;;;;;;;46.07;22.83;;;;;;;6.73;100.00;100869.06;6044545;23;20176;-72
2024/02/27 10:07:36;;;;;;;43.57;22.37;;;;;;;6.75;100.00;100872.16;6044620;23;20173;-72
2024/02/27 10:10:03;;;;;;;45.53;22.33;;;;;;;6.76;100.00;100873.72;6044454;23;20171;-72
2024/02/27 10:12:30;;;;;;;41.73;22.13;;;;;;;6.76;100.00;100877.13;6043561;23;20662;-72
2024/02/27 10:14:56;;;;;;;43.47;22.20;;;;;;;6.76;100.00;100881.59;6042922;23;20204;-72
2024/02/27 10:17:23;;;;;;;53.60;24.17;;;;;;;6.77;100.00;100880.50;6042809;23;20192;-72
2024/02/27 10:19:51;;;;;;;44.03;22.80;;;;;;;6.78;100.00;100882.09;6043227;23;20242;-72
2024/02/27 10:22:19;;;;;;;51.97;23.87;;;;;;;6.75;100.00;100877.41;6043641;23;20354;-72
2024/02/27 10:24:48;;;;;;;50.57;24.23;;;;;;;6.75;100.00;100877.41;6043696;23;20694;-72
2024/02/27 10:27:14;;;;;;;48.23;24.37;;;;;;;6.76;100.00;100885.00;6044026;23;20223;-72
2024/02/27 10:29:41;;;;;;;43.63;22.70;;;;;;;6.73;100.00;100885.56;6042715;23;20176;-72
2024/02/27 10:32:08;;;;;;;51.13;23.60;;;;;;;6.75;100.00;100886.06;6042409;23;20202;-72
2024/02/27 10:34:34;;;;;;;49.37;22.73;;;;;;;6.75;100.00;100885.28;6043447;23;20199;-72
2024/02/27 10:37:03;;;;;;;45.50;22.90;;;;;;;6.76;100.00;100882.38;6042416;23;20198;-72
2024/02/27 10:39:32;;;;;;;48.97;21.83;;;;;;;6.76;100.00;100894.72;6043148;23;20172;-72
2024/02/27 10:41:58;;;;;;;56.33;25.70;;;;;;;6.77;100.00;100891.00;6042624;23;20189;-72
2024/02/27 10:44:29;;;;;;;53.93;23.33;;;;;;;6.74;100.00;100895.00;6042690;23;20649;-72
2024/02/27 10:46:56;;;;;;;48.20;21.23;;;;;;;6.73;100.00;100897.94;6008273;23;20168;-72
2024/02/27 10:49:23;;;;;;;47.10;22.77;;;;;;;6.74;100.00;100895.00;6008618;23;20187;-72
2024/02/27 10:51:55;;;;;;;44.53;21.33;;;;;;;6.72;100.00;100898.97;6043212;23;20268;-72
2024/02/27 10:54:24;;;;;;;47.73;22.30;;;;;;;6.73;100.00;100892.69;6043389;23;20231;-72
2024/02/27 10:56:53;;;;;;;50.23;22.63;;;;;;;6.74;100.00;100896.84;6043412;23;20274;-73
2024/02/27 10:59:23;;;;;;;45.37;22.00;;;;;;;6.73;100.00;100896.06;6043657;23;20163;-72
2024/02/27 11:01:50;;;;;;;55.23;23.90;;;;;;;6.72;100.00;100889.28;6008803;23;20200;-72
2024/02/27 11:04:22;;;;;;;53.07;24.97;;;;;;;6.71;100.00;100902.66;6043473;23;20185;-72
2024/02/27 11:06:50;;;;;;;52.37;24.07;;;;;;;6.70;100.00;100899.28;6043870;23;20502;-72
2024/02/27 11:09:21;;;;;;;62.63;25.97;;;;;;;6.69;100.00;100895.09;6043288;23;20248;-72
2024/02/27 11:11:53;;;;;;;59.93;26.43;;;;;;;6.68;100.00;100898.03;6042407;23;20191;-72